createdAt,value
2022-09-11T00:00:55.789Z,13.41
2022-09-11T00:01:55.837Z,13.43
2022-09-11T00:02:56.004Z,13.43
2022-09-11T00:03:55.771Z,13.41
2022-09-11T00:04:55.768Z,13.43
2022-09-11T00:05:55.752Z,13.44
2022-09-11T00:06:55.726Z,13.44
2022-09-11T00:07:55.734Z,13.44
2022-09-11T00:08:55.748Z,13.46
2022-09-11T00:09:55.728Z,13.44
2022-09-11T00:10:59.308Z,13.44
2022-09-11T00:11:55.934Z,13.44
2022-09-11T00:12:55.668Z,13.41
2022-09-11T00:13:56.178Z,13.40
2022-09-11T00:14:57.480Z,13.36
2022-09-11T00:15:55.732Z,13.30
2022-09-11T00:16:57.328Z,13.30
2022-09-11T00:17:55.644Z,13.30
2022-09-11T00:18:55.624Z,13.29
2022-09-11T00:19:55.632Z,13.30
2022-09-11T00:20:55.583Z,13.30
2022-09-11T00:21:55.594Z,13.29
2022-09-11T00:22:55.557Z,13.29
2022-09-11T00:23:55.845Z,13.30
2022-09-11T00:24:55.581Z,13.33
2022-09-11T00:25:55.598Z,13.32
2022-09-11T00:26:55.518Z,13.30
2022-09-11T00:27:55.566Z,13.32
2022-09-11T00:28:55.525Z,13.30
2022-09-11T00:29:55.554Z,13.32
2022-09-11T00:30:55.512Z,13.30
2022-09-11T00:31:55.477Z,13.29
2022-09-11T00:32:55.763Z,13.30
2022-09-11T00:33:55.520Z,13.33
2022-09-11T00:34:55.448Z,13.36
2022-09-11T00:35:55.437Z,13.37
2022-09-11T00:36:55.505Z,13.38
2022-09-11T00:37:55.412Z,13.40
2022-09-11T00:38:55.443Z,13.41
2022-09-11T00:39:55.476Z,13.41
2022-09-11T00:40:55.385Z,13.43
2022-09-11T00:41:55.390Z,13.44
2022-09-11T00:42:55.379Z,13.44
2022-09-11T00:43:55.378Z,13.44
2022-09-11T00:44:55.391Z,13.44
2022-09-11T00:45:55.460Z,13.47
2022-09-11T00:46:55.341Z,13.47
2022-09-11T00:47:55.340Z,13.47
2022-09-11T00:48:55.412Z,13.47
2022-09-11T00:49:55.325Z,13.47
2022-09-11T00:50:55.314Z,13.46
2022-09-11T00:51:55.277Z,13.44
2022-09-11T00:52:55.302Z,13.43
2022-09-11T00:53:55.258Z,13.40
2022-09-11T00:54:55.255Z,13.40
2022-09-11T00:55:55.224Z,13.41
2022-09-11T00:56:55.222Z,13.44
2022-09-11T00:57:55.191Z,13.46
2022-09-11T00:58:55.208Z,13.44
2022-09-11T00:59:55.185Z,13.46
2022-09-11T01:00:55.253Z,13.46
2022-09-11T01:01:55.227Z,13.49
2022-09-11T01:02:55.182Z,13.49
2022-09-11T01:03:55.184Z,13.47
2022-09-11T01:04:55.168Z,13.51
2022-09-11T01:05:55.140Z,13.51
2022-09-11T01:06:55.132Z,13.51
2022-09-11T01:07:55.097Z,13.44
2022-09-11T01:08:55.121Z,13.43
2022-09-11T01:09:55.107Z,13.43
2022-09-11T01:10:55.068Z,13.40
2022-09-11T01:11:55.058Z,13.40
2022-09-11T01:12:55.308Z,13.37
2022-09-11T01:13:55.074Z,13.37
2022-09-11T01:14:55.038Z,13.37
2022-09-11T01:15:55.090Z,13.36
2022-09-11T01:16:55.024Z,13.37
2022-09-11T01:17:54.998Z,13.32
2022-09-11T01:18:55.019Z,13.30
2022-09-11T01:19:54.969Z,13.32
2022-09-11T01:20:54.985Z,13.29
2022-09-11T01:21:54.946Z,13.27
2022-09-11T01:22:54.965Z,13.22
2022-09-11T01:23:54.957Z,13.24
2022-09-11T01:24:54.939Z,13.18
2022-09-11T01:25:54.913Z,13.15
2022-09-11T01:26:54.932Z,13.12
2022-09-11T01:27:54.916Z,13.14
2022-09-11T01:28:54.939Z,13.12
2022-09-11T01:29:54.893Z,13.12
2022-09-11T01:30:54.885Z,13.11
2022-09-11T01:31:55.630Z,13.06
2022-09-11T01:32:54.863Z,13.07
2022-09-11T01:33:54.860Z,13.12
2022-09-11T01:34:54.831Z,13.11
2022-09-11T01:35:54.810Z,13.14
2022-09-11T01:36:54.828Z,13.15
2022-09-11T01:37:54.864Z,13.15
2022-09-11T01:38:54.811Z,13.14
2022-09-11T01:39:54.802Z,13.14
2022-09-11T01:40:54.781Z,13.12
2022-09-11T01:41:54.763Z,13.12
2022-09-11T01:42:54.755Z,13.15
2022-09-11T01:43:54.744Z,13.17
2022-09-11T01:44:55.456Z,13.18
2022-09-11T01:45:54.763Z,13.14
2022-09-11T01:46:54.750Z,13.14
2022-09-11T01:47:54.685Z,13.14
2022-09-11T01:48:54.701Z,13.11
2022-09-11T01:49:54.667Z,13.14
2022-09-11T01:50:54.686Z,13.15
2022-09-11T01:51:54.636Z,13.18
2022-09-11T01:52:54.668Z,13.17
2022-09-11T01:54:22.950Z,13.15
2022-09-11T01:54:54.637Z,13.18
2022-09-11T01:55:54.623Z,13.20
2022-09-11T01:56:54.602Z,13.18
2022-09-11T01:57:54.604Z,13.20
2022-09-11T01:58:54.620Z,13.20
2022-09-11T01:59:54.567Z,13.21
2022-09-11T02:00:54.588Z,13.21
2022-09-11T02:01:54.568Z,13.20
2022-09-11T02:02:54.552Z,13.20
2022-09-11T02:03:54.716Z,13.17
2022-09-11T02:04:54.534Z,13.17
2022-09-11T02:05:54.501Z,13.15
2022-09-11T02:06:54.544Z,13.17
2022-09-11T02:07:54.516Z,13.21
2022-09-11T02:08:54.489Z,13.22
2022-09-11T02:09:54.456Z,13.21
2022-09-11T02:10:54.492Z,13.21
2022-09-11T02:11:54.457Z,13.21
2022-09-11T02:12:54.694Z,13.21
2022-09-11T02:13:54.442Z,13.21
2022-09-11T02:14:54.422Z,13.18
2022-09-11T02:15:54.468Z,13.17
2022-09-11T02:16:54.663Z,13.17
2022-09-11T02:17:54.382Z,13.20
2022-09-11T02:18:56.070Z,13.20
2022-09-11T02:19:54.375Z,13.18
2022-09-11T02:20:54.372Z,13.21
2022-09-11T02:21:54.347Z,13.21
2022-09-11T02:22:54.360Z,13.22
2022-09-11T02:23:54.369Z,13.20
2022-09-11T02:24:54.337Z,13.22
2022-09-11T02:25:54.732Z,13.22
2022-09-11T02:26:54.585Z,13.25
2022-09-11T02:27:54.568Z,13.22
2022-09-11T02:28:54.324Z,13.22
2022-09-11T02:29:54.302Z,13.25
2022-09-11T02:30:54.269Z,13.25
2022-09-11T02:31:54.245Z,13.22
2022-09-11T02:32:54.488Z,13.24
2022-09-11T02:33:54.242Z,13.29
2022-09-11T02:34:54.791Z,13.29
2022-09-11T02:35:54.195Z,13.32
2022-09-11T02:36:54.206Z,13.32
2022-09-11T02:37:54.174Z,13.36
2022-09-11T02:38:57.891Z,13.32
2022-09-11T02:39:54.184Z,13.30
2022-09-11T02:40:54.185Z,13.33
2022-09-11T02:41:54.128Z,13.36
2022-09-11T02:42:54.854Z,13.33
2022-09-11T02:43:54.128Z,13.37
2022-09-11T02:44:54.152Z,13.40
2022-09-11T02:45:54.171Z,13.40
2022-09-11T02:46:54.123Z,13.40
2022-09-11T02:47:54.070Z,13.41
2022-09-11T02:48:54.066Z,13.43
2022-09-11T02:49:54.075Z,13.43
2022-09-11T02:50:54.045Z,13.46
2022-09-11T02:51:54.045Z,13.47
2022-09-11T02:52:54.862Z,13.49
2022-09-11T02:53:54.026Z,13.43
2022-09-11T02:54:54.029Z,13.43
2022-09-11T02:55:54.032Z,13.40
2022-09-11T02:56:54.023Z,13.41
2022-09-11T02:57:53.972Z,13.40
2022-09-11T02:58:53.986Z,13.43
2022-09-11T02:59:53.981Z,13.43
2022-09-11T03:00:54.245Z,13.44
2022-09-11T03:01:53.983Z,13.46
2022-09-11T03:02:55.178Z,13.46
2022-09-11T03:03:53.937Z,13.46
2022-09-11T03:04:53.921Z,13.49
2022-09-11T03:05:53.933Z,13.46
2022-09-11T03:06:53.871Z,13.44
2022-09-11T03:07:53.924Z,13.44
2022-09-11T03:08:53.901Z,13.46
2022-09-11T03:09:53.861Z,13.47
2022-09-11T03:10:53.865Z,13.47
2022-09-11T03:11:53.872Z,13.49
2022-09-11T03:12:53.831Z,13.47
2022-09-11T03:13:54.023Z,13.46
2022-09-11T03:14:53.806Z,13.49
2022-09-11T03:15:53.922Z,13.49
2022-09-11T03:16:53.784Z,13.49
2022-09-11T03:17:53.751Z,13.51
2022-09-11T03:18:53.791Z,13.52
2022-09-11T03:19:53.771Z,13.51
2022-09-11T03:20:53.736Z,13.49
2022-09-11T03:21:53.747Z,13.49
2022-09-11T03:22:53.719Z,13.47
2022-09-11T03:23:53.953Z,13.51
2022-09-11T03:24:53.688Z,13.46
2022-09-11T03:25:53.674Z,13.44
2022-09-11T03:26:53.672Z,13.44
2022-09-11T03:27:53.649Z,13.43
2022-09-11T03:28:53.663Z,13.44
2022-09-11T03:29:53.631Z,13.44
2022-09-11T03:30:53.632Z,13.46
2022-09-11T03:31:53.676Z,13.43
2022-09-11T03:32:53.660Z,13.43
2022-09-11T03:33:53.594Z,13.43
2022-09-11T03:34:53.618Z,13.44
2022-09-11T03:35:53.597Z,13.41
2022-09-11T03:36:53.586Z,13.40
2022-09-11T03:37:53.628Z,13.33
2022-09-11T03:38:53.617Z,13.30
2022-09-11T03:39:53.582Z,13.32
2022-09-11T03:40:53.539Z,13.30
2022-09-11T03:41:53.525Z,13.32
2022-09-11T03:43:00.207Z,13.33
2022-09-11T03:43:53.498Z,13.33
2022-09-11T03:44:53.546Z,13.32
2022-09-11T03:45:53.564Z,13.33
2022-09-11T03:46:53.505Z,13.37
2022-09-11T03:47:53.462Z,13.36
2022-09-11T03:48:53.482Z,13.36
2022-09-11T03:49:53.460Z,13.36
2022-09-11T03:50:53.435Z,13.33
2022-09-11T03:51:53.418Z,13.36
2022-09-11T03:52:53.420Z,13.37
2022-09-11T03:53:53.412Z,13.36
2022-09-11T03:54:53.397Z,13.37
2022-09-11T03:55:53.391Z,13.38
2022-09-11T03:56:54.979Z,13.40
2022-09-11T03:57:53.387Z,13.38
2022-09-11T03:58:53.355Z,13.40
2022-09-11T03:59:53.358Z,13.38
2022-09-11T04:00:53.344Z,13.41
2022-09-11T04:01:53.340Z,13.41
2022-09-11T04:02:53.298Z,13.41
2022-09-11T04:03:53.286Z,13.43
2022-09-11T04:04:53.290Z,13.44
2022-09-11T04:05:53.281Z,13.38
2022-09-11T04:06:53.260Z,13.30
2022-09-11T04:07:53.246Z,13.25
2022-09-11T04:08:53.232Z,13.25
2022-09-11T04:09:53.269Z,13.21
2022-09-11T04:10:53.248Z,13.22
2022-09-11T04:11:54.256Z,13.24
2022-09-11T04:12:56.388Z,13.25
2022-09-11T04:13:53.248Z,13.25
2022-09-11T04:14:54.497Z,13.27
2022-09-11T04:52:07.288Z,13.30
2022-09-11T05:57:24.338Z,13.36
2022-09-11T05:57:30.439Z,13.52
2022-09-11T05:58:30.371Z,13.54
2022-09-11T05:59:30.405Z,13.54
2022-09-11T06:00:30.347Z,13.56
2022-09-11T06:01:30.398Z,13.58
2022-09-11T06:02:30.365Z,13.59
2022-09-11T06:03:30.374Z,13.65
2022-09-11T10:34:24.937Z,18.09
2022-09-11T10:35:25.988Z,18.02
2022-09-11T10:36:25.790Z,17.99
2022-09-11T10:37:25.813Z,17.97
2022-09-11T10:38:25.751Z,17.99
2022-09-11T10:39:25.748Z,18.07
2022-09-11T10:40:25.816Z,18.13
2022-09-11T10:41:25.725Z,18.17
2022-09-11T10:42:25.724Z,18.19
2022-09-11T10:43:25.691Z,18.25
2022-09-11T10:44:25.691Z,18.34
2022-09-11T10:45:25.687Z,18.37
2022-09-11T10:46:25.688Z,18.42
2022-09-11T10:47:25.649Z,18.46
2022-09-11T10:48:25.636Z,18.44
2022-09-11T10:49:25.619Z,18.42
2022-09-11T10:50:25.621Z,18.39
2022-09-11T10:51:25.604Z,18.33
2022-09-11T10:52:25.639Z,18.33
2022-09-11T10:53:25.586Z,18.29
2022-09-11T10:54:25.592Z,18.27
2022-09-11T10:55:25.573Z,18.22
2022-09-11T10:56:25.558Z,18.17
2022-09-11T10:57:25.564Z,18.15
2022-09-11T10:58:25.539Z,18.13
2022-09-11T10:59:25.521Z,18.09
2022-09-11T11:00:25.545Z,18.02
2022-09-11T11:01:25.592Z,17.95
2022-09-11T11:02:25.519Z,17.91
2022-09-11T11:03:25.490Z,17.81
2022-09-11T11:04:25.475Z,17.82
2022-09-11T11:05:26.412Z,17.85
2022-09-11T11:06:25.515Z,17.95
2022-09-11T11:07:25.714Z,18.00
2022-09-11T11:08:25.418Z,18.04
2022-09-11T11:09:30.384Z,18.12
2022-09-11T11:10:27.178Z,18.17
2022-09-11T11:11:25.397Z,18.18
2022-09-11T11:12:25.836Z,18.18
2022-09-11T11:13:25.386Z,18.17
2022-09-11T11:14:25.357Z,18.18
2022-09-11T11:15:29.568Z,18.18
2022-09-11T11:16:25.372Z,18.13
2022-09-11T11:17:26.388Z,18.10
2022-09-11T11:18:25.354Z,18.04
2022-09-11T11:21:38.006Z,18.02
2022-09-11T11:22:38.964Z,18.04
2022-09-11T11:23:38.974Z,18.06
2022-09-11T11:24:38.931Z,18.10
2022-09-11T11:25:38.945Z,18.13
2022-09-11T11:26:38.924Z,18.18
2022-09-11T11:27:38.993Z,18.21
2022-09-11T11:28:38.970Z,18.25
2022-09-11T11:29:38.892Z,18.24
2022-09-11T11:30:38.877Z,18.25
2022-09-11T11:31:43.692Z,18.24
2022-09-11T11:32:38.863Z,18.22
2022-09-11T11:33:38.857Z,18.21
2022-09-11T11:34:38.848Z,18.18
2022-09-11T11:35:38.837Z,18.22
2022-09-11T11:36:38.841Z,18.25
2022-09-11T11:37:39.123Z,18.29
2022-09-11T11:38:38.785Z,18.31
2022-09-11T11:39:39.750Z,18.36
2022-09-11T11:40:38.798Z,18.36
2022-09-11T11:41:38.758Z,18.37
2022-09-11T11:42:38.745Z,18.29
2022-09-11T11:43:38.747Z,18.28
2022-09-11T11:44:38.743Z,18.24
2022-09-11T11:45:38.782Z,18.24
2022-09-11T11:46:38.724Z,18.27
2022-09-11T11:47:38.787Z,18.27
2022-09-11T11:48:38.693Z,18.27
2022-09-11T11:49:38.691Z,18.28
2022-09-11T11:50:38.668Z,18.27
2022-09-11T11:51:38.651Z,18.27
2022-09-11T11:52:38.654Z,18.27
2022-09-11T11:53:38.646Z,18.29
2022-09-11T11:54:38.634Z,18.29
2022-09-11T11:55:38.635Z,18.34
2022-09-11T11:56:38.621Z,18.37
2022-09-11T11:57:38.592Z,18.37
2022-09-11T11:58:38.661Z,18.36
2022-09-11T11:59:38.582Z,18.34
2022-09-11T12:00:38.596Z,18.34
2022-09-11T12:01:38.581Z,18.34
2022-09-11T12:02:38.547Z,18.29
2022-09-11T12:03:38.587Z,18.24
2022-09-11T12:04:38.520Z,18.24
2022-09-11T12:05:38.499Z,18.21
2022-09-11T12:06:38.500Z,18.18
2022-09-11T12:07:38.482Z,18.19
2022-09-11T12:08:38.512Z,18.21
2022-09-11T12:09:38.479Z,18.25
2022-09-11T12:10:38.497Z,18.31
2022-09-11T12:11:38.461Z,18.31
2022-09-11T12:12:42.013Z,18.31
2022-09-11T12:13:38.477Z,18.34
2022-09-11T12:14:38.441Z,18.33
2022-09-11T12:15:38.431Z,18.33
2022-09-11T12:16:38.465Z,18.37
2022-09-11T12:17:38.374Z,18.39
2022-09-11T12:18:38.387Z,18.42
2022-09-11T12:19:38.358Z,18.44
2022-09-11T12:20:38.383Z,18.47
2022-09-11T12:21:39.176Z,18.50
2022-09-11T12:22:38.352Z,18.59
2022-09-11T12:23:38.320Z,18.70
2022-09-11T12:24:38.316Z,18.77
2022-09-11T12:25:38.295Z,18.83
2022-09-11T12:26:38.311Z,18.91
2022-09-11T12:27:38.936Z,18.94
2022-09-11T12:28:38.272Z,18.97
2022-09-11T12:29:38.276Z,19.05
2022-09-11T12:30:38.272Z,19.08
2022-09-11T12:31:38.280Z,19.15
2022-09-11T12:32:38.262Z,19.21
2022-09-11T12:33:38.210Z,19.25
2022-09-11T12:34:38.209Z,19.28
2022-09-11T12:35:38.204Z,19.14
2022-09-11T12:36:38.194Z,19.15
2022-09-11T12:37:38.194Z,19.15
2022-09-11T12:38:38.177Z,19.15
2022-09-11T12:39:38.248Z,19.11
2022-09-11T12:40:38.145Z,19.08
2022-09-11T12:41:38.133Z,19.02
2022-09-11T12:42:38.143Z,19.02
2022-09-11T12:43:38.111Z,18.99
2022-09-11T12:44:38.364Z,19.01
2022-09-11T12:45:38.115Z,19.05
2022-09-11T12:46:38.088Z,19.08
2022-09-11T12:47:38.093Z,19.06
2022-09-11T12:48:38.061Z,19.10
2022-09-11T12:49:38.060Z,19.10
2022-09-11T12:50:38.090Z,19.08
2022-09-11T12:51:38.045Z,19.08
2022-09-11T12:52:38.031Z,19.06
2022-09-11T12:53:38.011Z,19.08
2022-09-11T12:54:38.698Z,19.08
2022-09-11T12:55:38.004Z,19.08
2022-09-11T12:56:38.004Z,19.05
2022-09-11T12:57:37.984Z,19.06
2022-09-11T12:58:37.964Z,19.10
2022-09-11T12:59:37.977Z,19.08
2022-09-11T13:00:37.942Z,19.05
2022-09-11T13:01:38.043Z,19.05
2022-09-11T13:02:37.935Z,19.05
2022-09-11T13:03:38.543Z,19.06
2022-09-11T13:04:37.901Z,19.10
2022-09-11T13:05:37.918Z,19.11
2022-09-11T13:06:37.897Z,19.11
2022-09-11T13:07:37.889Z,19.10
2022-09-11T13:08:37.854Z,19.11
2022-09-11T13:09:37.848Z,19.11
2022-09-11T13:10:37.839Z,19.13
2022-09-11T13:11:37.846Z,19.13
2022-09-11T13:12:37.830Z,19.13
2022-09-11T13:13:37.793Z,19.15
2022-09-11T13:14:37.793Z,19.17
2022-09-11T13:15:37.845Z,19.15
2022-09-11T13:16:37.775Z,19.15
2022-09-11T13:17:37.772Z,19.13
2022-09-11T13:18:37.752Z,19.11
2022-09-11T13:19:37.735Z,19.11
2022-09-11T13:20:37.730Z,19.13
2022-09-11T13:21:37.718Z,19.08
2022-09-11T13:22:41.220Z,19.10
2022-09-11T13:23:38.230Z,19.06
2022-09-11T13:24:37.700Z,19.01
2022-09-11T13:25:37.670Z,18.98
2022-09-11T13:26:37.690Z,18.97
2022-09-11T13:27:37.671Z,18.95
2022-09-11T13:28:37.841Z,18.92
2022-09-11T13:29:37.640Z,18.94
2022-09-11T13:30:37.654Z,18.95
2022-09-11T13:31:38.205Z,18.95
2022-09-11T13:32:37.629Z,18.94
2022-09-11T13:33:37.612Z,18.95
2022-09-11T13:34:37.599Z,18.94
2022-09-11T13:35:37.587Z,18.94
2022-09-11T13:36:37.580Z,18.94
2022-09-11T13:37:37.542Z,18.97
2022-09-11T13:38:37.564Z,18.95
2022-09-11T13:39:37.586Z,18.95
2022-09-11T13:40:37.530Z,18.92
2022-09-11T13:41:37.633Z,18.92
2022-09-11T13:42:37.508Z,18.94
2022-09-11T13:43:37.510Z,18.95
2022-09-11T13:44:37.493Z,18.97
2022-09-11T13:45:37.507Z,18.95
2022-09-11T13:46:37.465Z,19.01
2022-09-11T13:47:37.694Z,18.99
2022-09-11T13:48:37.468Z,19.05
2022-09-11T13:49:37.810Z,19.08
2022-09-11T13:50:37.435Z,19.11
2022-09-11T13:51:37.474Z,19.15
2022-09-11T13:52:37.405Z,19.17
2022-09-11T13:53:37.430Z,19.20
2022-09-11T13:54:37.379Z,19.21
2022-09-11T13:55:37.368Z,19.24
2022-09-11T13:56:37.358Z,19.23
2022-09-11T13:57:37.336Z,19.23
2022-09-11T13:58:37.585Z,19.21
2022-09-11T13:59:37.314Z,19.20
2022-09-11T14:00:37.339Z,19.15
2022-09-11T14:01:37.380Z,19.17
2022-09-11T14:02:37.372Z,19.17
2022-09-11T14:03:37.297Z,19.15
2022-09-11T14:04:37.283Z,19.15
2022-09-11T14:05:37.262Z,19.14
2022-09-11T14:06:37.268Z,19.11
2022-09-11T14:07:37.241Z,19.11
2022-09-11T14:08:37.259Z,19.11
2022-09-11T14:09:37.209Z,19.11
2022-09-11T14:10:37.215Z,19.06
2022-09-11T14:11:37.875Z,19.02
2022-09-11T14:12:37.205Z,19.01
2022-09-11T14:13:37.198Z,18.97
2022-09-11T14:14:37.189Z,18.95
2022-09-11T14:15:37.308Z,18.95
2022-09-11T14:16:37.149Z,18.97
2022-09-11T14:17:37.138Z,18.98
2022-09-11T14:18:37.156Z,18.98
2022-09-11T14:19:37.115Z,18.98
2022-09-11T14:20:37.716Z,18.97
2022-09-11T14:21:37.095Z,18.97
2022-09-11T14:22:37.101Z,18.97
2022-09-11T14:23:37.123Z,18.97
2022-09-11T14:24:37.072Z,18.97
2022-09-11T14:25:37.054Z,18.94
2022-09-11T14:26:37.051Z,18.90
2022-09-11T14:27:37.022Z,18.87
2022-09-11T14:28:37.048Z,18.87
2022-09-11T14:29:37.007Z,18.86
2022-09-11T14:30:37.661Z,18.83
2022-09-11T14:31:37.009Z,18.84
2022-09-11T14:32:37.117Z,18.83
2022-09-11T14:33:36.972Z,18.82
2022-09-11T14:34:36.986Z,18.79
2022-09-11T14:35:36.943Z,18.79
2022-09-11T14:36:36.944Z,18.77
2022-09-11T14:37:36.915Z,18.76
2022-09-11T14:38:37.078Z,18.74
2022-09-11T14:39:36.992Z,18.74
2022-09-11T14:40:36.902Z,18.70
2022-09-11T14:41:36.884Z,18.65
2022-09-11T14:42:36.888Z,18.65
2022-09-11T14:43:36.865Z,18.65
2022-09-11T14:44:36.877Z,18.62
2022-09-11T14:45:36.856Z,18.61
2022-09-11T14:46:36.975Z,18.58
2022-09-11T14:47:36.823Z,18.55
2022-09-11T14:48:36.823Z,18.55
2022-09-11T14:49:36.800Z,18.55
2022-09-11T14:50:45.717Z,18.55
2022-09-11T14:51:37.806Z,18.55
2022-09-11T14:52:36.775Z,18.55
2022-09-11T14:53:36.758Z,18.55
2022-09-11T14:54:36.763Z,18.57
2022-09-11T14:55:36.901Z,18.54
2022-09-11T14:56:36.837Z,18.57
2022-09-11T14:57:36.715Z,18.59
2022-09-11T14:58:36.975Z,18.61
2022-09-11T14:59:36.705Z,18.61
2022-09-11T15:00:36.737Z,18.59
2022-09-11T15:01:36.737Z,18.59
2022-09-11T15:02:36.673Z,18.59
2022-09-11T15:03:36.709Z,18.58
2022-09-11T15:04:36.653Z,18.55
2022-09-11T15:06:51.728Z,18.50
2022-09-11T15:08:00.911Z,18.47
2022-09-11T15:08:52.157Z,18.46
2022-09-11T15:10:03.230Z,18.43
2022-09-11T15:11:06.258Z,18.40
2022-09-11T15:11:51.582Z,18.37
2022-09-11T15:12:51.553Z,18.33
2022-09-11T15:14:13.412Z,18.29
2022-09-11T15:14:56.852Z,18.28
2022-09-11T15:15:51.570Z,18.25
2022-09-11T15:16:51.495Z,18.19
2022-09-11T15:17:51.501Z,18.17
2022-09-11T15:18:52.249Z,18.10
2022-09-11T15:19:51.484Z,18.02
2022-09-11T15:20:51.478Z,17.94
2022-09-11T15:21:51.468Z,17.91
2022-09-11T15:22:51.465Z,17.84
2022-09-11T15:23:51.436Z,17.78
2022-09-11T15:24:53.342Z,17.73
2022-09-11T15:25:51.440Z,17.70
2022-09-11T15:26:51.471Z,17.67
2022-09-11T15:29:12.047Z,17.64
2022-09-11T15:30:13.023Z,17.63
2022-09-11T15:31:14.089Z,17.59
2022-09-11T15:32:13.007Z,17.55
2022-09-11T15:33:19.659Z,17.50
2022-09-11T15:34:12.992Z,17.48
2022-09-11T15:35:41.637Z,17.46
2022-09-11T15:36:13.089Z,17.44
2022-09-11T15:37:12.938Z,17.41
2022-09-11T15:38:12.931Z,17.40
2022-09-11T15:39:12.911Z,17.38
2022-09-11T15:40:21.764Z,17.36
2022-09-11T15:41:12.914Z,17.36
2022-09-11T15:42:12.881Z,17.32
2022-09-11T15:43:12.915Z,17.22
2022-09-11T15:44:12.860Z,17.17
2022-09-11T15:45:12.889Z,17.14
2022-09-11T15:46:12.917Z,17.08
2022-09-11T15:47:13.012Z,17.06
2022-09-11T15:48:12.809Z,17.00
2022-09-11T15:49:12.826Z,16.96
2022-09-11T15:50:12.792Z,16.90
2022-09-11T15:51:13.474Z,16.83
2022-09-11T15:52:12.786Z,16.73
2022-09-11T15:53:12.780Z,16.67
2022-09-11T15:54:12.757Z,16.59
2022-09-11T15:55:12.772Z,16.55
2022-09-11T15:56:12.728Z,16.52
2022-09-11T15:57:12.731Z,16.45
2022-09-11T15:58:12.726Z,16.45
2022-09-11T15:59:12.731Z,16.45
2022-09-11T16:00:12.707Z,16.44
2022-09-11T16:01:12.727Z,16.45
2022-09-11T16:02:12.723Z,16.44
2022-09-11T16:03:12.664Z,16.38
2022-09-11T16:04:13.759Z,16.33
2022-09-11T16:05:12.670Z,16.25
2022-09-11T16:06:12.723Z,16.20
2022-09-11T16:07:12.646Z,16.16
2022-09-11T16:08:14.408Z,16.15
2022-09-11T16:09:14.133Z,16.16
2022-09-11T16:10:12.658Z,16.16
2022-09-11T16:11:12.809Z,16.16
2022-09-11T16:12:12.608Z,16.18
2022-09-11T16:13:12.607Z,16.18
2022-09-11T16:14:12.570Z,16.15
2022-09-11T16:15:12.569Z,16.11
2022-09-11T16:16:12.602Z,16.09
2022-09-11T16:17:12.755Z,16.06
2022-09-11T16:18:20.834Z,16.04
2022-09-11T16:19:12.617Z,16.09
2022-09-11T16:20:12.642Z,16.07
2022-09-11T16:21:13.951Z,16.07
2022-09-11T16:22:30.683Z,16.09
2022-09-11T16:23:12.482Z,16.12
2022-09-11T16:24:12.441Z,16.11
2022-09-11T16:25:13.283Z,16.11
2022-09-11T16:26:17.791Z,16.11
2022-09-11T16:27:12.526Z,16.11
2022-09-11T16:28:12.587Z,16.11
2022-09-11T16:29:12.567Z,16.09
2022-09-11T16:31:12.545Z,16.07
2022-09-11T16:32:12.695Z,16.07
2022-09-11T16:33:12.569Z,16.04
2022-09-11T16:34:12.471Z,16.04
2022-09-11T16:35:13.543Z,16.03
2022-09-11T16:36:16.944Z,16.04
2022-09-11T16:37:12.377Z,16.04
2022-09-11T16:38:12.417Z,16.06
2022-09-11T16:39:12.341Z,16.06
2022-09-11T16:40:12.363Z,16.06
2022-09-11T16:41:12.278Z,16.09
2022-09-11T16:42:18.832Z,16.07
2022-09-11T16:43:12.286Z,16.07
2022-09-11T16:44:12.245Z,16.07
2022-09-11T16:45:12.239Z,16.06
2022-09-11T16:46:12.211Z,16.07
2022-09-11T16:47:12.209Z,16.09
2022-09-11T16:48:12.205Z,16.04
2022-09-11T16:49:12.560Z,16.04
2022-09-11T16:50:12.181Z,16.03
2022-09-11T16:51:12.261Z,16.03
2022-09-11T16:52:12.154Z,16.00
2022-09-11T16:53:12.175Z,15.99
2022-09-11T16:54:12.127Z,15.97
2022-09-11T16:55:12.126Z,15.96
2022-09-11T16:56:12.121Z,15.96
2022-09-11T16:57:12.103Z,15.96
2022-09-11T16:58:12.108Z,15.97
2022-09-11T16:59:12.092Z,15.96
2022-09-11T17:00:12.063Z,15.96
2022-09-11T17:01:12.093Z,15.96
2022-09-11T17:02:12.127Z,15.92
2022-09-11T17:03:12.087Z,15.88
2022-09-11T17:04:12.048Z,15.85
2022-09-11T17:05:12.030Z,15.81
2022-09-11T17:06:12.019Z,15.78
2022-09-11T17:07:12.023Z,15.75
2022-09-11T17:08:12.237Z,15.70
2022-09-11T17:09:12.004Z,15.68
2022-09-11T17:10:11.960Z,15.66
2022-09-11T17:11:12.164Z,15.63
2022-09-11T17:12:11.939Z,15.61
2022-09-11T17:13:12.416Z,15.57
2022-09-11T17:14:11.920Z,15.52
2022-09-11T17:15:11.924Z,15.48
2022-09-11T17:16:16.149Z,15.41
2022-09-11T17:17:12.806Z,15.39
2022-09-11T17:18:11.900Z,15.35
2022-09-11T17:19:11.906Z,15.31
2022-09-11T17:20:11.879Z,15.31
2022-09-11T17:21:11.868Z,15.27
2022-09-11T17:22:11.841Z,15.24
2022-09-11T17:23:11.936Z,15.24
2022-09-11T17:24:11.848Z,15.20
2022-09-11T17:25:11.884Z,15.17
2022-09-11T17:26:11.805Z,15.15
2022-09-11T17:27:11.831Z,15.17
2022-09-11T17:28:11.823Z,15.13
2022-09-11T17:29:11.809Z,15.12
2022-09-11T17:30:11.875Z,15.11
2022-09-11T17:31:11.818Z,15.09
2022-09-11T17:32:27.351Z,15.08
2022-09-11T17:33:11.792Z,15.06
2022-09-11T17:34:11.719Z,15.05
2022-09-11T17:35:11.717Z,15.03
2022-09-11T17:36:11.721Z,15.01
2022-09-11T17:37:11.709Z,14.98
2022-09-11T17:38:11.693Z,14.94
2022-09-11T17:39:11.681Z,14.91
2022-09-11T17:40:11.727Z,14.91
2022-09-11T17:41:11.676Z,14.90
2022-09-11T17:42:13.355Z,14.88
2022-09-11T17:43:11.648Z,14.86
2022-09-11T17:44:11.607Z,14.81
2022-09-11T17:45:11.624Z,14.83
2022-09-11T17:46:11.675Z,14.75
2022-09-11T17:47:11.605Z,14.75
2022-09-11T17:48:11.624Z,14.72
2022-09-11T17:49:11.580Z,14.69
2022-09-11T17:50:11.665Z,14.65
2022-09-11T17:51:11.611Z,14.65
2022-09-11T17:52:11.689Z,14.62
2022-09-11T17:53:11.567Z,14.61
2022-09-11T17:54:11.539Z,14.57
2022-09-11T17:55:11.546Z,14.56
2022-09-11T17:56:11.488Z,14.53
2022-09-11T17:57:11.709Z,14.53
2022-09-11T17:58:11.517Z,14.52
2022-09-11T17:59:20.337Z,14.49
2022-09-11T18:00:20.907Z,14.46
2022-09-11T18:01:16.511Z,14.46
2022-09-11T18:02:13.448Z,14.46
2022-09-11T18:03:18.247Z,14.44
2022-09-11T18:04:11.417Z,14.42
2022-09-11T18:05:11.400Z,14.43
2022-09-11T18:06:11.396Z,14.42
2022-09-11T18:07:11.415Z,14.42
2022-09-11T18:08:11.377Z,14.42
2022-09-11T18:09:11.374Z,14.42
2022-09-11T18:10:11.506Z,14.42
2022-09-11T18:11:12.373Z,14.38
2022-09-11T18:12:11.319Z,14.32
2022-09-11T18:13:11.322Z,14.29
2022-09-11T18:14:11.299Z,14.28
2022-09-11T18:15:11.332Z,14.28
2022-09-11T18:16:13.282Z,14.24
2022-09-11T18:17:11.535Z,14.27
2022-09-11T18:18:11.441Z,14.27
2022-09-11T18:19:11.301Z,14.25
2022-09-11T18:20:11.227Z,14.25
2022-09-11T18:21:11.343Z,14.21
2022-09-11T18:22:11.249Z,14.20
2022-09-11T18:23:11.223Z,14.19
2022-09-11T18:24:11.742Z,14.17
2022-09-11T18:25:11.199Z,14.13
2022-09-11T18:26:11.191Z,14.12
2022-09-11T18:27:11.167Z,14.10
2022-09-11T18:28:11.184Z,14.06
2022-09-11T18:29:11.144Z,14.04
2022-09-11T18:30:11.140Z,14.01
2022-09-11T18:31:11.206Z,13.98
2022-09-11T18:32:11.149Z,13.95
2022-09-11T18:33:11.106Z,13.92
2022-09-11T18:34:11.122Z,13.95
2022-09-11T18:35:11.773Z,13.94
2022-09-11T18:36:11.088Z,13.94
2022-09-11T18:37:11.089Z,13.91
2022-09-11T18:38:11.091Z,13.87
2022-09-11T18:39:11.122Z,13.87
2022-09-11T18:40:11.090Z,13.87
2022-09-11T18:41:11.021Z,13.83
2022-09-11T18:42:11.029Z,13.84
2022-09-11T18:43:11.771Z,13.87
2022-09-11T18:44:11.043Z,13.88
2022-09-11T18:45:11.012Z,13.84
2022-09-11T18:46:11.027Z,13.84
2022-09-11T18:47:10.967Z,13.80
2022-09-11T18:48:10.986Z,13.80
2022-09-11T18:49:11.820Z,13.77
2022-09-11T18:50:10.978Z,13.77
2022-09-11T18:51:10.910Z,13.74
2022-09-11T18:52:10.921Z,13.74
2022-09-11T18:53:10.905Z,13.71
2022-09-11T18:54:10.908Z,13.71
2022-09-11T18:55:11.047Z,13.70
2022-09-11T18:56:10.881Z,13.69
2022-09-11T18:57:10.857Z,13.65
2022-09-11T18:58:10.985Z,13.65
2022-09-11T18:59:10.946Z,13.63
2022-09-11T19:00:10.836Z,13.63
2022-09-11T19:01:11.058Z,13.62
2022-09-11T19:02:10.903Z,13.61
2022-09-11T19:03:10.875Z,13.58
2022-09-11T19:04:10.803Z,13.59
2022-09-11T19:05:10.928Z,13.59
2022-09-11T19:06:10.772Z,13.56
2022-09-11T19:07:10.809Z,13.54
2022-09-11T19:08:10.869Z,13.54